• Join FlightAware (Why Join?)
  • Login
  • US Flag 
05:06AM EDT


 

Airport Tracker/Info


-or-


 

Live Flight TrackerFlight Track Log ✈ ASQ5756 ✈ 27-Feb-2013 ✈ KIAD - KJFK

Flight Track Log - Related Links

Times and Time Zones

All times are in EST time to prevent confusion due to time zone crossing. See the ASQ5756 flight status page for this flight to view local times or setup timezone preferences in your user account.

Time Position Orientation Groundspeed Altitude Reporting Facility
EST Latitude Longitude Course Direction KTS MPH feet Rate Location/Type
11:27AM 38.9833 -77.5000 360° North 200 230 2,200  Level Potomac TRACON
11:28AM 39.0500 -77.5000 360° North 257 296 4,800 2,520 Climbing Potomac TRACON
11:29AM 39.1167 -77.4667 21° North 285 328 7,400 2,520 Climbing Potomac TRACON
11:30AM 39.1667 -77.3833 52° Northeast 311 358 9,900 1,560 Climbing Potomac TRACON
11:31AM 39.1500 -77.2667 100° East 369 425 10,600 1,380 Climbing Potomac TRACON
11:33AM 39.1136 -76.9881 99° East 402 463 14,100 1,740 Climbing Washington Center
11:34AM 39.0925 -76.8431 101° East 408 470 15,900 1,380 Climbing Washington Center
11:35AM 39.0731 -76.7011 100° East 413 475 17,000 540 Climbing Washington Center
11:36AM 39.0533 -76.5592 100° East 408 470 17,000  Level Washington Center
11:37AM 39.0356 -76.4228 99° East 403 464 17,000  Level Washington Center
11:38AM 39.0406 -76.2917 87° East 367 422 17,000  Level Washington Center
11:39AM 39.0725 -76.1558 73° East 372 428 17,000  Level Washington Center
11:40AM 39.1086 -76.0250 70° East 372 428 17,000  Level Washington Center
11:41AM 39.1422 -75.8858 73° East 385 443 17,000  Level Washington Center
11:42AM 39.1758 -75.7494 72° East 395 455 17,000  Level Washington Center
11:43AM 39.2092 -75.6131 72° East 395 455 17,000  Level Washington Center
11:44AM 39.2425 -75.4736 73° East 400 460 17,000  Level Washington Center
11:45AM 39.2778 -75.3450 70° East 395 455 17,000  Level Washington Center
11:46AM 39.3108 -75.2133 72° East 389 448 17,000  Level Washington Center
11:47AM 39.3394 -75.1058 71° East 367 422 17,000  Level Washington Center
11:48AM 39.3786 -74.9928 66° East 354 407 17,000  Level Washington Center
11:49AM 39.4217 -74.8797 64° Northeast 343 395 17,000  Level Washington Center
11:50AM 39.4606 -74.7717 65° Northeast 336 387 17,000  Level Washington Center
11:52AM 39.5469 -74.5319 65° Northeast 323 372 17,000  Level New York Center
11:53AM 39.5881 -74.4236 64° Northeast 323 372 17,100 -60 Climbing New York Center
11:54AM 39.6292 -74.3072 65° Northeast 323 372 16,900 -600 Descending New York Center
11:55AM 39.6656 -74.2039 65° Northeast 323 372 15,900 -1,020 Descending New York Center
11:56AM 39.7222 -74.1175 50° Northeast 311 358 14,900 -1,020 Descending New York Center
11:57AM 39.7822 -74.0556 38° Northeast 301 346 13,900 -1,080 Descending New York Center
11:58AM 39.8575 -73.9808 37° Northeast 306 352 12,800 -1,080 Descending New York Center
11:59AM 39.9275 -73.9272 30° Northeast 295 339 11,800 -960 Descending New York Center
12:00PM 39.9978 -73.8761 29° Northeast 290 334 11,000 -480 Descending New York Center
12:01PM 40.0697 -73.8358 23° Northeast 298 343 10,900 -780 Descending New York Center
12:02PM 40.1333 -73.8000 23° Northeast 319 367 9,700 -1,860 Descending New York TRACON
12:03PM 40.2000 -73.7500 30° Northeast 310 357 7,800 -2,040 Descending New York TRACON
12:04PM 40.2667 -73.7000 30° Northeast 303 349 5,900 -2,100 Descending New York TRACON
12:05PM 40.3333 -73.7667 323° Northwest 270 311 3,700 -1,740 Descending New York TRACON
12:06PM 40.3500 -73.8500 285° West 248 285 2,300 -900 Descending New York TRACON
12:07PM 40.4167 -73.9000 330° Northwest 216 249 2,000 -180 Descending New York TRACON
12:08PM 40.4667 -73.9000 360° North 196 226 2,000  Level New York TRACON
12:09PM 40.5167 -73.8667 27° Northeast 196 226 2,000 -180 Level New York TRACON
12:10PM 40.5500 -73.8333 37° Northeast 197 227 1,700 -660 Descending New York TRACON
12:11PM 40.6000 -73.8000 27° Northeast 158 182 800 2,700 Descending New York TRACON
12:13PM 40.6811 -73.7211 36° Northeast 170 196 11,000 4,200 Climbing New York Center
12:15PM 40.6333 -73.7667 North  Level FlightAware Approximate